createdAt,value
2023-05-20T00:04:10.893Z,90.7903
2023-05-20T00:10:15.203Z,90.4954
2023-05-20T00:11:15.067Z,90.1385
2023-05-20T00:12:16.394Z,88.3294
2023-05-20T00:13:16.394Z,89.4840
2023-05-20T00:14:17.202Z,89.4951
2023-05-20T00:15:17.297Z,89.7115
2023-05-20T00:16:17.410Z,89.9770
2023-05-20T00:17:17.761Z,89.9124
2023-05-20T00:18:18.734Z,89.5561
2023-05-20T00:19:19.248Z,90.3443
2023-05-20T00:21:21.605Z,90.8458
2023-05-20T00:22:21.697Z,90.5306
2023-05-20T00:23:22.328Z,90.4284
2023-05-20T00:24:24.132Z,90.8744
2023-05-20T00:25:24.439Z,91.4933
2023-05-20T00:26:25.009Z,91.6600
2023-05-20T00:27:26.261Z,91.2919
2023-05-20T00:28:26.287Z,91.4832
2023-05-20T00:29:26.499Z,91.2385
2023-05-20T00:30:27.073Z,91.2450
2023-05-20T00:31:28.810Z,91.6504
2023-05-20T00:32:28.742Z,91.1825
2023-05-20T00:33:29.329Z,90.6792
2023-05-20T00:34:30.991Z,91.3986
2023-05-20T00:40:36.170Z,92.1225
2023-05-20T00:41:36.314Z,92.3890
2023-05-20T00:42:36.801Z,92.9846
2023-05-20T00:43:38.714Z,93.0795
2023-05-20T00:44:39.849Z,92.4748
2023-05-20T00:45:40.089Z,92.4282
2023-05-20T00:46:41.795Z,92.7234
2023-05-20T00:47:42.621Z,92.7384
2023-05-20T00:52:45.002Z,92.3162
2023-05-20T00:53:45.307Z,92.9036
2023-05-20T00:54:46.756Z,92.6312
2023-05-20T00:55:46.951Z,93.1379
2023-05-20T00:56:48.053Z,93.9933
2023-05-20T00:57:48.564Z,93.7858
2023-05-20T00:58:49.066Z,94.1276
2023-05-20T00:59:49.060Z,94.2970
2023-05-20T01:00:49.921Z,94.9398
2023-05-20T01:01:50.930Z,95.5793
2023-05-20T01:02:51.329Z,95.9861
2023-05-20T01:03:51.927Z,95.9409
2023-05-20T01:08:55.779Z,95.4334
2023-05-20T01:09:56.274Z,95.7241
2023-05-20T01:10:57.049Z,95.4931
2023-05-20T01:11:58.516Z,95.7886
2023-05-20T01:12:59.566Z,96.2063
2023-05-20T01:14:00.066Z,96.3685
2023-05-20T01:17:03.583Z,96.5121
2023-05-20T01:18:04.172Z,96.3951
2023-05-20T01:19:05.715Z,95.7253
2023-05-20T01:20:06.895Z,95.7959
2023-05-20T01:21:06.958Z,94.9085
2023-05-20T01:24:09.327Z,95.0420
2023-05-20T01:25:10.997Z,94.8497
2023-05-20T01:26:11.529Z,94.6892
2023-05-20T01:27:12.896Z,94.9141
2023-05-20T01:29:13.850Z,95.4528
2023-05-20T01:30:14.555Z,95.7031
2023-05-20T01:37:17.246Z,96.7616
2023-05-20T01:38:17.590Z,96.4655
2023-05-20T01:39:18.734Z,96.6107
2023-05-20T01:40:20.030Z,96.7574
2023-05-20T01:43:21.484Z,96.6013
2023-05-20T01:45:21.736Z,96.8943
2023-05-20T01:50:23.811Z,97.0316
2023-05-20T01:51:24.685Z,97.0144
2023-05-20T01:52:25.574Z,96.9978
2023-05-20T01:54:26.077Z,97.0576
2023-05-20T01:59:27.607Z,97.3724
2023-05-20T02:00:28.796Z,97.4322
2023-05-20T02:01:28.262Z,97.5365
2023-05-20T02:02:28.706Z,97.4179
2023-05-20T02:03:29.610Z,97.3128
2023-05-20T02:04:29.783Z,97.1381
2023-05-20T02:05:30.023Z,97.2559
2023-05-20T02:06:30.398Z,97.1914
2023-05-20T02:07:31.167Z,97.3217
2023-05-20T02:08:32.061Z,97.4276
2023-05-20T02:09:32.642Z,97.4018
2023-05-20T02:10:33.863Z,97.5143
2023-05-20T02:13:34.703Z,97.6903
2023-05-20T02:14:35.514Z,97.8230
2023-05-20T02:15:35.741Z,97.8981
2023-05-20T02:16:36.877Z,98.0633
2023-05-20T02:17:38.192Z,97.9617
2023-05-20T02:18:38.381Z,98.0443
2023-05-20T02:19:39.665Z,98.1674
2023-05-20T02:20:40.637Z,98.0585
2023-05-20T02:21:40.810Z,97.9960
2023-05-20T02:22:41.777Z,98.0561
2023-05-20T02:25:43.623Z,97.9787
2023-05-20T02:26:43.933Z,97.9116
2023-05-20T02:27:44.659Z,97.9732
2023-05-20T02:28:45.138Z,97.9808
2023-05-20T02:34:49.826Z,97.8590
2023-05-20T02:36:49.742Z,97.8032
2023-05-20T02:37:49.811Z,97.8110
2023-05-20T02:38:50.728Z,97.9523
2023-05-20T02:39:51.926Z,98.0892
2023-05-20T02:40:52.083Z,98.1599
2023-05-20T02:41:52.880Z,98.2075
2023-05-20T02:42:53.037Z,98.2823
2023-05-20T02:43:54.345Z,98.2750
2023-05-20T02:44:54.933Z,98.3295
2023-05-20T02:45:55.799Z,98.4470
2023-05-20T02:46:57.869Z,98.4686
2023-05-20T02:47:58.564Z,98.5441
2023-05-20T02:48:59.638Z,98.5698
2023-05-20T02:50:00.215Z,98.6737
2023-05-20T02:56:04.554Z,98.1740
2023-05-20T02:57:05.652Z,98.1793
2023-05-20T02:58:06.428Z,98.2013
2023-05-20T02:59:07.769Z,98.1368
2023-05-20T03:00:08.443Z,98.1425
2023-05-20T03:01:09.828Z,98.1872
2023-05-20T03:02:10.315Z,98.2580
2023-05-20T03:03:10.442Z,98.3256
2023-05-20T03:04:10.984Z,98.3260
2023-05-20T03:05:11.161Z,98.3812
2023-05-20T03:06:12.010Z,98.3541
2023-05-20T03:08:13.259Z,98.1830
2023-05-20T03:09:14.428Z,98.2568
2023-05-20T03:10:14.671Z,98.3082
2023-05-20T03:11:14.935Z,98.4484
2023-05-20T03:12:16.964Z,98.4819
2023-05-20T03:13:17.960Z,98.5036
2023-05-20T03:15:19.085Z,98.5102
2023-05-20T03:18:20.244Z,98.3812
2023-05-20T03:19:20.919Z,98.3280
2023-05-20T03:20:21.096Z,98.2508
2023-05-20T03:21:23.658Z,98.2797
2023-05-20T03:32:28.829Z,98.4047
2023-05-20T03:33:29.152Z,98.3127
2023-05-20T03:34:29.826Z,98.2350
2023-05-20T03:35:31.945Z,98.1853
2023-05-20T03:36:33.096Z,98.0723
2023-05-20T03:37:33.489Z,98.0656
2023-05-20T03:38:34.449Z,98.0457
2023-05-20T03:39:35.252Z,97.9297
2023-05-20T03:40:35.642Z,97.8865
2023-05-20T03:41:36.107Z,97.8650
2023-05-20T03:42:37.016Z,97.8077
2023-05-20T03:43:37.183Z,97.7754
2023-05-20T03:44:38.841Z,97.7029
2023-05-20T03:45:39.680Z,97.7011
2023-05-20T03:46:40.274Z,97.7605
2023-05-20T03:47:40.383Z,97.8103
2023-05-20T03:48:41.359Z,97.7116
2023-05-20T03:49:41.631Z,97.9888
2023-05-20T03:53:43.926Z,97.3694
2023-05-20T03:54:44.926Z,97.5109
2023-05-20T03:56:45.540Z,97.3412
2023-05-20T03:57:45.590Z,97.1824
2023-05-20T03:58:46.411Z,97.1986
2023-05-20T03:59:47.283Z,97.2655
2023-05-20T04:00:48.633Z,97.2573
2023-05-20T04:01:48.875Z,97.3269
2023-05-20T04:03:50.842Z,97.4601
2023-05-20T04:05:51.749Z,97.5198
2023-05-20T04:06:52.403Z,97.6237
2023-05-20T04:07:53.834Z,97.7926
2023-05-20T04:08:54.175Z,97.7687
2023-05-20T04:09:55.781Z,97.8380
2023-05-20T04:10:56.288Z,97.8221
2023-05-20T04:11:57.847Z,97.6150
2023-05-20T04:12:58.342Z,97.4137
2023-05-20T04:13:58.738Z,97.3404
2023-05-20T04:14:59.333Z,97.3542
2023-05-20T04:21:03.169Z,97.4863
2023-05-20T04:24:05.707Z,97.4282
2023-05-20T04:25:05.870Z,97.3655
2023-05-20T04:26:06.767Z,97.2761
2023-05-20T04:27:08.593Z,97.2167
2023-05-20T04:28:08.932Z,97.2757
2023-05-20T04:29:08.966Z,97.3079
2023-05-20T04:30:10.380Z,97.3745
2023-05-20T04:33:12.638Z,97.2622
2023-05-20T04:36:15.697Z,96.9322
2023-05-20T04:37:15.974Z,96.8726
2023-05-20T04:38:16.352Z,96.7749
2023-05-20T04:51:24.293Z,95.8604
2023-05-20T04:52:25.124Z,95.9031
2023-05-20T04:53:26.384Z,95.6660
2023-05-20T04:55:29.151Z,95.6853
2023-05-20T04:56:30.135Z,95.5296
2023-05-20T04:58:32.543Z,94.1869
2023-05-20T04:59:33.721Z,94.3367
2023-05-20T05:00:33.822Z,94.8939
2023-05-20T05:02:35.766Z,94.9832
2023-05-20T05:03:36.968Z,94.8749
2023-05-20T05:04:36.558Z,95.1772
2023-05-20T05:05:37.395Z,95.1783
2023-05-20T05:09:41.569Z,94.5434
2023-05-20T05:10:42.035Z,94.4870
2023-05-20T05:11:43.013Z,94.3169
2023-05-20T05:12:43.036Z,93.9215
2023-05-20T05:13:43.255Z,93.6902
2023-05-20T05:14:43.760Z,93.2176
2023-05-20T05:15:44.077Z,92.9596
2023-05-20T05:16:44.197Z,91.4689
2023-05-20T05:17:45.617Z,90.2911
2023-05-20T05:19:46.314Z,91.2347
2023-05-20T05:20:46.861Z,89.2917
2023-05-20T05:21:47.925Z,91.1903
2023-05-20T05:22:48.940Z,92.0660
2023-05-20T05:23:49.853Z,91.8540
2023-05-20T05:24:50.143Z,91.3684
2023-05-20T05:25:51.145Z,89.8748
2023-05-20T05:26:52.999Z,90.3439
2023-05-20T05:27:54.680Z,90.9250
2023-05-20T05:29:55.132Z,89.2552
2023-05-20T05:30:56.375Z,90.2944
2023-05-20T05:31:57.654Z,89.4827
2023-05-20T05:32:59.445Z,89.7837
2023-05-20T05:35:00.832Z,89.2916
2023-05-20T05:36:00.953Z,89.6015
2023-05-20T05:37:01.442Z,88.8998
2023-05-20T05:38:01.814Z,87.3661
2023-05-20T05:39:02.772Z,87.7108
2023-05-20T05:40:03.362Z,88.2446
2023-05-20T05:41:03.648Z,87.1857
2023-05-20T05:42:04.416Z,87.7654
2023-05-20T05:44:04.552Z,87.5347
2023-05-20T05:45:05.535Z,86.9225
2023-05-20T05:46:06.721Z,88.4679
2023-05-20T05:47:08.294Z,87.0476
2023-05-20T05:48:08.520Z,86.8015
2023-05-20T05:49:08.186Z,86.3017
2023-05-20T05:50:10.196Z,86.4217
2023-05-20T05:53:12.177Z,85.5349
2023-05-20T05:54:12.546Z,84.9525
2023-05-20T05:55:13.145Z,85.5155
2023-05-20T05:56:13.605Z,85.4140
2023-05-20T05:57:14.014Z,85.7582
2023-05-20T05:58:14.209Z,86.6799
2023-05-20T05:59:15.740Z,84.6760
2023-05-20T06:00:16.375Z,86.0656
2023-05-20T06:01:17.116Z,86.3705
2023-05-20T06:02:18.371Z,85.7058
2023-05-20T06:03:19.179Z,85.3842
2023-05-20T06:04:20.366Z,86.2720
2023-05-20T06:05:20.255Z,84.7166
2023-05-20T06:06:20.929Z,85.0866
2023-05-20T06:07:20.966Z,84.8252
2023-05-20T06:08:22.704Z,84.8697
2023-05-20T06:09:24.205Z,84.7618
2023-05-20T06:12:26.028Z,83.9425
2023-05-20T06:13:26.699Z,84.1995
2023-05-20T06:22:29.928Z,83.1318
2023-05-20T06:23:31.023Z,82.6190
2023-05-20T06:24:31.022Z,82.9651
2023-05-20T06:25:32.030Z,83.3928
2023-05-20T06:26:32.915Z,83.3118
2023-05-20T06:27:33.764Z,83.5543
2023-05-20T06:28:34.001Z,83.2720
2023-05-20T06:29:34.204Z,83.7065
2023-05-20T06:30:34.932Z,83.1345
2023-05-20T06:31:35.841Z,82.6968
2023-05-20T06:32:36.581Z,83.0632
2023-05-20T06:34:37.482Z,83.0720
2023-05-20T06:35:38.343Z,83.1308
2023-05-20T06:36:39.166Z,83.4320
2023-05-20T06:37:39.815Z,83.0335
2023-05-20T06:38:40.709Z,83.2535
2023-05-20T06:39:41.381Z,83.6140
2023-05-20T06:40:41.649Z,82.8144
2023-05-20T06:41:42.481Z,81.5856
2023-05-20T06:42:42.702Z,82.0047
2023-05-20T06:43:43.577Z,81.7629
2023-05-20T06:44:44.493Z,81.3829
2023-05-20T06:45:45.174Z,81.7687
2023-05-20T06:46:45.905Z,81.9333
2023-05-20T06:47:46.477Z,81.9645
2023-05-20T06:48:47.354Z,81.5261
2023-05-20T06:49:47.834Z,82.8709
2023-05-20T06:50:49.322Z,82.7690
2023-05-20T06:51:50.158Z,81.6576
2023-05-20T06:52:51.682Z,82.8449
2023-05-20T06:59:54.628Z,83.6090
2023-05-20T07:00:54.775Z,83.4811
2023-05-20T07:01:55.965Z,83.4109
2023-05-20T07:02:57.054Z,83.7853
2023-05-20T07:03:57.807Z,85.2371
2023-05-20T07:04:58.847Z,84.5074
2023-05-20T07:06:00.162Z,84.2692
2023-05-20T07:12:04.866Z,84.1680
2023-05-20T07:13:05.922Z,83.6211
2023-05-20T07:14:06.211Z,83.4496
2023-05-20T07:15:07.818Z,83.3792
2023-05-20T07:16:09.441Z,82.9046
2023-05-20T07:17:09.926Z,82.0963
2023-05-20T07:18:10.055Z,81.3978
2023-05-20T07:19:11.598Z,81.7172
2023-05-20T07:20:12.154Z,82.5424
2023-05-20T07:22:13.265Z,82.0661
2023-05-20T07:23:15.651Z,80.5903
2023-05-20T07:25:13.972Z,79.4568
2023-05-20T07:26:15.073Z,80.5600
2023-05-20T07:27:16.045Z,79.5749
2023-05-20T07:28:16.819Z,80.3487
2023-05-20T07:29:18.378Z,80.3132
2023-05-20T07:30:19.150Z,80.3598
2023-05-20T07:31:19.389Z,80.6361
2023-05-20T07:32:20.077Z,81.6464
2023-05-20T07:33:20.199Z,79.8499
2023-05-20T07:34:21.378Z,80.1705
2023-05-20T07:35:21.618Z,80.2703
2023-05-20T07:36:22.058Z,80.0080
2023-05-20T07:37:22.801Z,79.3525
2023-05-20T07:38:24.363Z,78.9418
2023-05-20T07:39:26.034Z,80.3009
2023-05-20T07:40:26.518Z,80.4314
2023-05-20T07:41:26.972Z,79.9060
2023-05-20T07:42:29.090Z,79.5395
2023-05-20T07:43:29.208Z,79.8739
2023-05-20T07:44:30.264Z,80.2336
2023-05-20T07:45:31.969Z,81.0349
2023-05-20T07:46:33.195Z,80.0795
2023-05-20T07:47:33.482Z,79.2817
2023-05-20T07:48:34.967Z,79.6453
2023-05-20T07:49:35.332Z,80.8912
2023-05-20T07:51:36.203Z,80.1666
2023-05-20T07:53:40.145Z,79.8849
2023-05-20T07:54:41.699Z,80.2660
2023-05-20T07:55:42.731Z,80.5304
2023-05-20T08:05:49.231Z,78.6609
2023-05-20T08:06:49.791Z,79.7941
2023-05-20T08:07:50.025Z,79.1203
2023-05-20T08:08:50.004Z,79.6338
2023-05-20T08:09:50.532Z,79.7588
2023-05-20T08:10:51.718Z,79.2738
2023-05-20T08:11:52.707Z,79.5406
2023-05-20T08:12:53.151Z,80.0157
2023-05-20T08:13:54.152Z,79.2730
2023-05-20T08:14:54.988Z,78.7045
2023-05-20T08:16:56.892Z,78.0614
2023-05-20T08:17:56.926Z,77.4814
2023-05-20T08:28:05.172Z,78.1684
2023-05-20T08:29:05.786Z,78.5493
2023-05-20T08:31:07.380Z,78.1931
2023-05-20T08:32:08.032Z,78.9336
2023-05-20T08:33:09.350Z,78.1617
2023-05-20T08:34:10.152Z,76.7656
2023-05-20T08:35:09.996Z,77.3816
2023-05-20T08:36:11.134Z,78.3990
2023-05-20T08:37:11.345Z,78.6511
2023-05-20T08:38:11.997Z,78.6161
2023-05-20T08:39:13.145Z,78.6472
2023-05-20T08:40:23.459Z,79.8742
2023-05-20T08:43:15.282Z,79.4827
2023-05-20T08:44:16.163Z,80.0834
2023-05-20T08:45:16.363Z,79.9272
2023-05-20T08:46:18.506Z,79.7602
2023-05-20T08:47:18.457Z,79.9465
2023-05-20T08:48:18.712Z,78.4885
2023-05-20T08:51:22.332Z,77.4097
2023-05-20T08:52:21.683Z,76.3333
2023-05-20T08:55:25.190Z,78.0354
2023-05-20T09:05:33.589Z,81.3921
2023-05-20T09:11:38.440Z,77.6349
2023-05-20T09:12:38.616Z,77.8839
2023-05-20T09:13:38.318Z,76.4621
2023-05-20T09:14:39.440Z,76.9839
2023-05-20T09:15:40.667Z,76.5399
2023-05-20T09:21:42.555Z,78.7589
2023-05-20T09:22:42.665Z,80.0695
2023-05-20T09:23:43.383Z,79.3405
2023-05-20T09:24:44.655Z,78.7867
2023-05-20T09:25:44.979Z,78.8140
2023-05-20T09:26:45.708Z,78.9813
2023-05-20T09:27:46.672Z,79.7395
2023-05-20T09:28:47.002Z,79.0116
2023-05-20T09:29:48.623Z,79.7237
2023-05-20T09:32:49.690Z,79.1781
2023-05-20T09:33:50.829Z,78.6429
2023-05-20T09:34:51.660Z,77.3294
2023-05-20T09:35:52.918Z,77.9112
2023-05-20T09:36:53.041Z,78.2026
2023-05-20T09:37:54.308Z,76.0212
2023-05-20T09:38:55.158Z,74.7330
2023-05-20T09:40:55.902Z,71.8858
2023-05-20T09:41:56.317Z,70.7179
2023-05-20T09:42:57.208Z,70.5517
2023-05-20T09:43:58.124Z,71.1174
2023-05-20T09:45:58.278Z,71.4982
2023-05-20T09:47:00.991Z,71.1082
2023-05-20T09:48:00.122Z,71.3889
2023-05-20T09:49:00.409Z,70.2778
2023-05-20T09:50:00.629Z,72.4669
2023-05-20T09:51:01.786Z,71.8751
2023-05-20T09:57:06.689Z,65.8803
2023-05-20T09:58:06.878Z,67.5137
2023-05-20T09:59:08.401Z,66.6031
2023-05-20T10:00:09.100Z,69.3507
2023-05-20T10:01:10.053Z,69.8021
2023-05-20T10:02:11.256Z,70.9235
2023-05-20T10:03:13.094Z,71.5101
2023-05-20T10:04:13.267Z,74.1489
2023-05-20T10:05:13.478Z,73.4350
2023-05-20T10:06:15.114Z,72.3666
2023-05-20T10:07:15.979Z,73.4266
2023-05-20T10:08:16.903Z,74.0008
2023-05-20T10:09:17.318Z,74.2484
2023-05-20T10:10:19.089Z,73.6912
2023-05-20T10:11:19.549Z,73.5267
2023-05-20T10:12:19.812Z,72.8713
2023-05-20T10:13:21.352Z,73.0965
2023-05-20T10:14:22.597Z,73.3547
2023-05-20T10:15:23.322Z,74.7613
2023-05-20T10:16:24.290Z,75.5715
2023-05-20T10:20:25.884Z,75.1573
2023-05-20T10:21:26.822Z,75.8687
2023-05-20T10:22:27.107Z,75.0519
2023-05-20T10:23:27.276Z,74.5731
2023-05-20T10:24:28.938Z,73.7725
2023-05-20T10:25:29.669Z,73.5343
2023-05-20T10:26:31.048Z,74.7724
2023-05-20T10:27:31.891Z,74.3237
2023-05-20T10:28:33.493Z,75.3765
2023-05-20T10:29:34.079Z,75.8595
2023-05-20T10:30:34.818Z,75.1659
2023-05-20T10:31:36.528Z,74.9411
2023-05-20T10:32:37.880Z,75.5942
2023-05-20T10:33:39.012Z,76.6743
2023-05-20T10:34:40.526Z,75.5299
2023-05-20T10:35:40.826Z,75.5905
2023-05-20T10:36:44.364Z,75.5284
2023-05-20T10:37:44.550Z,75.8531
2023-05-20T10:38:45.882Z,74.8539
2023-05-20T10:49:47.595Z,75.3627
2023-05-20T10:50:48.456Z,75.3670
2023-05-20T10:51:48.842Z,75.1828
2023-05-20T10:52:49.902Z,74.7670
2023-05-20T10:53:50.815Z,74.0787
2023-05-20T10:54:51.822Z,73.9441
2023-05-20T10:56:54.493Z,72.1796
2023-05-20T10:58:54.284Z,72.0916
2023-05-20T10:59:55.839Z,72.3796
2023-05-20T11:00:56.267Z,72.7971
2023-05-20T11:01:56.782Z,72.0172
2023-05-20T11:02:57.315Z,71.6608
2023-05-20T11:03:57.863Z,71.5343
2023-05-20T11:04:57.995Z,71.5106
2023-05-20T11:06:59.545Z,71.3209
2023-05-20T11:08:00.481Z,72.2968
2023-05-20T11:09:00.685Z,72.0084
2023-05-20T11:10:01.512Z,72.5054
2023-05-20T11:11:02.663Z,73.4331
2023-05-20T11:12:03.684Z,72.5266
2023-05-20T11:13:04.550Z,72.0211
2023-05-20T11:14:05.966Z,71.0865
2023-05-20T11:15:07.051Z,72.2198
2023-05-20T11:16:07.920Z,71.6046
2023-05-20T11:17:09.501Z,70.2485
2023-05-20T11:18:09.964Z,70.5523
2023-05-20T11:19:09.832Z,70.7137
2023-05-20T11:20:10.572Z,70.3010
2023-05-20T11:21:10.751Z,71.2581
2023-05-20T11:23:12.998Z,69.0297
2023-05-20T11:29:05.068Z,69.6647
2023-05-20T11:30:06.061Z,71.2687
2023-05-20T11:32:07.534Z,70.6465
2023-05-20T11:34:08.341Z,68.2300
2023-05-20T11:35:08.461Z,67.0088
2023-05-20T11:36:20.241Z,65.1272
2023-05-20T11:37:13.974Z,66.1228
2023-05-20T11:38:14.206Z,64.4432
2023-05-20T11:40:14.423Z,65.9248
2023-05-20T11:51:00.583Z,67.0728
2023-05-20T11:53:01.139Z,63.5319
2023-05-20T11:54:01.283Z,62.3527
2023-05-20T11:55:03.004Z,66.4324
2023-05-20T11:56:02.583Z,67.8687
2023-05-20T11:57:04.644Z,66.6308
2023-05-20T11:58:03.801Z,65.8594
2023-05-20T11:59:04.234Z,66.7663
2023-05-20T12:00:05.643Z,68.2018
2023-05-20T12:01:21.116Z,67.3040
2023-05-20T12:02:07.968Z,67.8812
2023-05-20T12:11:17.789Z,69.1286
2023-05-20T12:12:19.198Z,68.0797
2023-05-20T12:13:19.664Z,67.7313
2023-05-20T12:14:20.881Z,66.5693
2023-05-20T12:15:21.180Z,66.2673
2023-05-20T12:16:21.437Z,66.6222
2023-05-20T12:17:24.010Z,66.8271
2023-05-20T12:18:25.288Z,65.9122
2023-05-20T12:19:26.498Z,65.6598
2023-05-20T12:20:26.569Z,65.7005
2023-05-20T12:21:27.352Z,65.8615
2023-05-20T12:22:27.671Z,67.1678
2023-05-20T12:26:56.419Z,65.6457
2023-05-20T12:28:57.162Z,65.4756
2023-05-20T12:29:57.435Z,65.7603
2023-05-20T12:30:57.826Z,65.6543
2023-05-20T12:31:58.162Z,65.1170
2023-05-20T12:32:58.140Z,64.0953
2023-05-20T12:33:59.811Z,64.9878
2023-05-20T12:34:59.997Z,66.4518
2023-05-20T12:36:01.424Z,66.5927
2023-05-20T12:37:03.210Z,66.7752
2023-05-20T12:46:10.983Z,67.3790
2023-05-20T12:47:11.999Z,67.9166
2023-05-20T12:48:12.416Z,68.7958
2023-05-20T12:49:13.665Z,70.1655
2023-05-20T12:50:14.661Z,69.1251
2023-05-20T12:51:15.359Z,69.6121
2023-05-20T12:52:23.162Z,70.0970
2023-05-20T12:54:24.268Z,69.5542
2023-05-20T12:55:25.626Z,70.3052
2023-05-20T12:56:26.126Z,68.4260
2023-05-20T12:57:26.372Z,66.5225
2023-05-20T12:58:28.453Z,65.8529
2023-05-20T13:01:29.994Z,65.9922
2023-05-20T13:02:30.963Z,65.8333
2023-05-20T13:03:30.941Z,66.9087
2023-05-20T13:04:31.950Z,66.8248
2023-05-20T13:05:32.508Z,66.0914
2023-05-20T13:06:33.076Z,65.8827
2023-05-20T13:07:34.846Z,66.8705
2023-05-20T13:08:34.908Z,65.9998
2023-05-20T13:10:35.511Z,65.1958
2023-05-20T13:11:36.219Z,63.1747
2023-05-20T13:12:37.705Z,63.8980
2023-05-20T13:13:38.899Z,64.2068
2023-05-20T13:15:38.209Z,65.4019
2023-05-20T13:16:38.713Z,65.5967
2023-05-20T13:17:38.970Z,66.6779
2023-05-20T13:19:41.033Z,64.9295
2023-05-20T13:20:41.575Z,65.3231
2023-05-20T13:21:41.694Z,64.7702
2023-05-20T13:22:42.960Z,66.8081
2023-05-20T13:24:45.599Z,67.1866
2023-05-20T13:25:47.430Z,67.5822
2023-05-20T13:27:47.942Z,66.2602
2023-05-20T13:28:48.894Z,67.8652
2023-05-20T13:29:49.058Z,66.5121
2023-05-20T13:30:49.707Z,67.8633
2023-05-20T13:31:49.712Z,67.8771
2023-05-20T13:32:50.457Z,67.9129
2023-05-20T13:33:51.436Z,67.4535
2023-05-20T13:35:52.782Z,67.8387
2023-05-20T13:44:57.891Z,66.1230
2023-05-20T13:45:58.262Z,67.6536
2023-05-20T13:46:58.571Z,66.7385
2023-05-20T13:47:59.789Z,65.9419
2023-05-20T13:48:59.998Z,63.1391
2023-05-20T13:50:04.884Z,64.8285
2023-05-20T13:51:05.656Z,62.5827
2023-05-20T13:52:06.454Z,64.6849
2023-05-20T13:54:06.754Z,63.6236
2023-05-20T13:55:07.218Z,61.4632
2023-05-20T13:56:08.641Z,61.2863
2023-05-20T13:57:10.048Z,64.2313
2023-05-20T13:58:10.072Z,61.8645
2023-05-20T13:59:10.332Z,61.0465
2023-05-20T14:00:12.339Z,62.2374
2023-05-20T14:05:15.259Z,65.9028
2023-05-20T14:06:15.345Z,63.9121
2023-05-20T14:08:15.807Z,65.0153
2023-05-20T14:09:17.194Z,66.3478
2023-05-20T14:16:19.524Z,66.7700
2023-05-20T14:17:19.995Z,66.6633
2023-05-20T14:19:22.832Z,67.2435
2023-05-20T14:20:23.191Z,67.4817
2023-05-20T14:21:24.709Z,67.1575
2023-05-20T14:22:26.444Z,67.2315
2023-05-20T14:25:29.042Z,68.8545
2023-05-20T14:34:35.689Z,69.9128
2023-05-20T14:35:36.679Z,69.0407
2023-05-20T14:36:37.170Z,68.7614
2023-05-20T14:37:37.967Z,70.9803
2023-05-20T14:46:43.143Z,71.9362
2023-05-20T14:47:43.784Z,70.3250
2023-05-20T14:48:44.081Z,70.1036
2023-05-20T14:53:45.716Z,69.0520
2023-05-20T14:59:40.131Z,68.9549
2023-05-20T15:01:42.068Z,70.6926
2023-05-20T15:02:43.153Z,71.6773
2023-05-20T15:03:44.138Z,69.9559
2023-05-20T15:04:45.076Z,69.4260
2023-05-20T15:07:47.183Z,73.1111
2023-05-20T15:08:47.730Z,72.3667
2023-05-20T15:09:48.116Z,70.1711
2023-05-20T15:10:48.606Z,69.4720
2023-05-20T15:11:49.237Z,70.7099
2023-05-20T15:12:49.653Z,71.2268
2023-05-20T15:13:51.044Z,69.8687
2023-05-20T15:14:53.154Z,71.0833
2023-05-20T15:18:53.825Z,69.9926
2023-05-20T15:26:58.010Z,66.2440
2023-05-20T15:27:59.162Z,67.8044
2023-05-20T15:28:59.953Z,69.5675
2023-05-20T15:30:00.300Z,68.7961
2023-05-20T15:33:02.320Z,69.0919
2023-05-20T15:34:03.338Z,70.2244
2023-05-20T15:36:03.664Z,71.8590
2023-05-20T15:37:04.360Z,69.4879
2023-05-20T15:38:04.910Z,69.2099
2023-05-20T15:48:09.355Z,73.5741
2023-05-20T15:49:09.925Z,72.4573
2023-05-20T15:53:10.246Z,72.5366
2023-05-20T15:54:10.560Z,72.6018
2023-05-20T15:55:11.605Z,77.6746
2023-05-20T15:57:12.153Z,76.9711
2023-05-20T15:58:12.783Z,78.0762
2023-05-20T15:59:13.881Z,74.8017
2023-05-20T16:00:14.976Z,74.4433
2023-05-20T16:01:15.931Z,77.3900
2023-05-20T16:05:18.094Z,74.4404
2023-05-20T16:06:18.565Z,73.6787
2023-05-20T16:07:20.416Z,71.6683
2023-05-20T16:08:21.702Z,72.4766
2023-05-20T16:09:21.975Z,73.8200
2023-05-20T16:10:25.311Z,73.3073
2023-05-20T16:11:23.389Z,72.0318
2023-05-20T16:18:26.227Z,69.8259
2023-05-20T16:19:28.296Z,69.2175
2023-05-20T16:20:28.937Z,70.6778
2023-05-20T16:21:30.205Z,70.9686
2023-05-20T16:22:32.082Z,69.5820
2023-05-20T16:23:32.755Z,72.9715
2023-05-20T16:24:33.542Z,71.3946
2023-05-20T16:26:34.686Z,69.5665
2023-05-20T16:27:35.665Z,69.8934
2023-05-20T16:28:35.725Z,72.2925
2023-05-20T16:29:36.575Z,74.9788
2023-05-20T16:30:38.047Z,71.4712
2023-05-20T16:31:39.592Z,71.0819
2023-05-20T16:32:40.354Z,71.5977
2023-05-20T16:33:42.020Z,76.0096
2023-05-20T16:34:43.205Z,77.0895
2023-05-20T16:35:43.962Z,74.7011
2023-05-20T16:36:45.333Z,74.6140
2023-05-20T16:39:48.004Z,73.2210
2023-05-20T16:40:48.679Z,75.2911
2023-05-20T16:44:50.469Z,74.5199
2023-05-20T16:45:50.725Z,73.7658
2023-05-20T16:46:53.911Z,78.6943
2023-05-20T16:51:54.466Z,73.5620
2023-05-20T16:52:54.816Z,72.5784
2023-05-20T16:53:55.957Z,73.6805
2023-05-20T16:54:57.571Z,76.0900
2023-05-20T16:55:58.259Z,79.7751
2023-05-20T16:56:59.476Z,73.4351
2023-05-20T16:57:59.501Z,75.6175
2023-05-20T16:58:59.811Z,81.0818
2023-05-20T17:00:00.018Z,81.3699
2023-05-20T17:01:01.182Z,82.0852
2023-05-20T17:02:01.624Z,82.1102
2023-05-20T17:03:01.651Z,82.1431
2023-05-20T17:04:02.927Z,80.6877
2023-05-20T17:05:03.265Z,82.2807
2023-05-20T17:06:05.094Z,84.1757
2023-05-20T17:07:05.645Z,84.6044
2023-05-20T17:08:06.859Z,83.9814
2023-05-20T17:09:07.818Z,84.5673
2023-05-20T17:10:08.505Z,84.9923
2023-05-20T17:11:09.681Z,85.8742
2023-05-20T17:12:10.167Z,85.3777
2023-05-20T17:15:11.370Z,85.6100
2023-05-20T17:18:12.938Z,87.8899
2023-05-20T17:20:04.033Z,86.4593
2023-05-20T17:21:04.686Z,87.0777
2023-05-20T17:22:05.415Z,87.9526
2023-05-20T17:32:11.941Z,87.9673
2023-05-20T17:33:12.388Z,87.6467
2023-05-20T17:34:12.924Z,88.1946
2023-05-20T17:35:13.128Z,87.7047
2023-05-20T17:36:14.212Z,86.7713
2023-05-20T17:37:15.074Z,87.2791
2023-05-20T17:38:16.133Z,86.9482
2023-05-20T17:39:16.355Z,86.6419
2023-05-20T17:40:17.530Z,87.7304
2023-05-20T17:41:18.797Z,86.4671
2023-05-20T17:46:20.930Z,87.4345
2023-05-20T17:48:23.237Z,86.4482
2023-05-20T17:50:23.611Z,87.9753
2023-05-20T17:51:23.942Z,88.5084
2023-05-20T17:52:24.498Z,88.6822
2023-05-20T17:53:25.256Z,87.9508
2023-05-20T17:54:26.064Z,87.1123
2023-05-20T17:56:25.718Z,87.0624
2023-05-20T17:57:26.239Z,87.9030
2023-05-20T17:58:28.693Z,88.5089
2023-05-20T18:03:30.596Z,87.3305
2023-05-20T18:04:31.738Z,86.8931
2023-05-20T18:05:32.678Z,86.1975
2023-05-20T18:07:34.098Z,87.2557
2023-05-20T18:08:34.849Z,87.9701
2023-05-20T18:09:35.612Z,88.0744
2023-05-20T18:10:37.025Z,88.1269
2023-05-20T18:11:37.303Z,88.3781
2023-05-20T18:12:37.667Z,88.9840
2023-05-20T18:13:38.026Z,88.6753
2023-05-20T18:14:38.686Z,88.3800
2023-05-20T18:15:40.214Z,88.3936
2023-05-20T18:16:42.566Z,88.3189
2023-05-20T18:17:41.331Z,87.6093
2023-05-20T18:18:41.983Z,86.9880
2023-05-20T18:23:46.781Z,85.9421
2023-05-20T18:24:46.992Z,86.0801
2023-05-20T18:25:47.278Z,85.8854
2023-05-20T18:26:48.642Z,86.2950
2023-05-20T18:27:49.257Z,86.8011
2023-05-20T18:28:49.214Z,86.7877
2023-05-20T18:29:49.254Z,86.8413
2023-05-20T18:31:58.808Z,86.9171
2023-05-20T18:33:52.226Z,85.9742
2023-05-20T18:34:52.463Z,85.9506
2023-05-20T18:35:52.711Z,85.7112
2023-05-20T18:36:53.743Z,85.8597
2023-05-20T18:37:54.929Z,84.5398
2023-05-20T18:38:55.796Z,83.4950
2023-05-20T18:39:56.587Z,85.8819
2023-05-20T18:40:56.592Z,84.6407
2023-05-20T18:41:56.750Z,83.9671
2023-05-20T18:42:57.635Z,83.8613
2023-05-20T18:43:58.395Z,83.7895
2023-05-20T18:44:58.714Z,84.7804
2023-05-20T18:45:59.042Z,85.0594
2023-05-20T18:47:00.337Z,85.2045